createdAt,value
2018-03-30T00:00:05.837Z,5.62
2018-03-30T00:02:33.340Z,5.45
2018-03-30T00:05:01.225Z,5.97
2018-03-30T00:07:28.727Z,5.53
2018-03-30T00:09:57.214Z,5.25
2018-03-30T00:12:24.796Z,4.90
2018-03-30T00:14:52.314Z,6.40
2018-03-30T00:17:19.826Z,5.28
2018-03-30T00:19:47.325Z,5.93
2018-03-30T00:22:14.842Z,5.50
2018-03-30T00:24:42.716Z,5.55
2018-03-30T00:27:10.320Z,5.60
2018-03-30T00:29:38.301Z,5.22
2018-03-30T00:32:05.890Z,6.00
2018-03-30T00:34:33.480Z,5.70
2018-03-30T00:37:01.383Z,5.25
2018-03-30T00:39:29.279Z,5.18
2018-03-30T00:41:57.186Z,5.15
2018-03-30T00:44:24.740Z,5.30
2018-03-30T00:46:53.253Z,5.55
2018-03-30T00:49:22.018Z,5.40
2018-03-30T00:51:49.520Z,5.65
2018-03-30T00:54:17.010Z,5.45
2018-03-30T00:56:44.530Z,5.30
2018-03-30T00:59:12.022Z,5.70
2018-03-30T01:01:39.569Z,6.15
2018-03-30T01:04:07.047Z,5.75
2018-03-30T01:06:34.636Z,5.60
2018-03-30T01:09:02.138Z,5.05
2018-03-30T01:11:30.108Z,5.47
2018-03-30T01:13:57.589Z,5.30
2018-03-30T01:16:25.090Z,6.03
2018-03-30T01:18:52.594Z,5.82
2018-03-30T01:21:20.561Z,5.72
2018-03-30T01:23:48.154Z,5.40
2018-03-30T01:26:15.642Z,5.90
2018-03-30T01:28:43.541Z,5.85
2018-03-30T01:31:11.420Z,5.30
2018-03-30T01:33:38.926Z,5.78
2018-03-30T01:36:06.490Z,5.80
2018-03-30T01:38:34.399Z,5.43
2018-03-30T01:41:01.884Z,6.00
2018-03-30T01:43:29.839Z,6.20
2018-03-30T01:45:57.316Z,5.00
2018-03-30T01:48:24.816Z,5.80
2018-03-30T01:50:52.311Z,5.18
2018-03-30T01:53:20.204Z,5.35
2018-03-30T01:55:48.086Z,6.28
2018-03-30T01:58:15.619Z,5.15
2018-03-30T02:00:43.177Z,6.00
2018-03-30T02:03:11.157Z,5.80
2018-03-30T02:05:39.036Z,5.07
2018-03-30T02:08:06.552Z,5.65
2018-03-30T02:10:34.104Z,5.72
2018-03-30T02:13:01.685Z,5.25
2018-03-30T02:15:29.175Z,5.97
2018-03-30T02:17:56.677Z,5.28
2018-03-30T02:20:24.646Z,6.22
2018-03-30T02:22:52.151Z,5.70
2018-03-30T02:25:20.020Z,5.65
2018-03-30T02:27:47.618Z,5.40
2018-03-30T02:30:15.102Z,6.28
2018-03-30T02:32:42.680Z,6.00
2018-03-30T02:35:10.262Z,5.85
2018-03-30T02:37:37.859Z,5.90
2018-03-30T02:40:05.845Z,4.90
2018-03-30T02:42:33.447Z,6.72
2018-03-30T02:45:01.353Z,5.85
2018-03-30T02:47:28.844Z,6.28
2018-03-30T02:49:56.363Z,5.43
2018-03-30T02:52:23.858Z,5.45
2018-03-30T02:54:51.374Z,6.35
2018-03-30T02:57:19.262Z,5.53
2018-03-30T02:59:46.774Z,5.80
2018-03-30T03:02:14.259Z,6.22
2018-03-30T03:04:41.804Z,5.30
2018-03-30T03:07:09.298Z,5.78
2018-03-30T03:09:37.277Z,5.03
2018-03-30T03:12:04.770Z,5.65
2018-03-30T03:14:32.756Z,4.90
2018-03-30T03:17:00.232Z,5.55
2018-03-30T03:19:27.758Z,5.80
2018-03-30T03:21:55.237Z,5.62
2018-03-30T03:24:22.736Z,4.90
2018-03-30T03:26:50.220Z,5.50
2018-03-30T03:29:17.731Z,6.05
2018-03-30T03:31:45.228Z,5.15
2018-03-30T03:34:12.834Z,5.60
2018-03-30T03:36:40.733Z,4.75
2018-03-30T03:39:08.624Z,6.75
2018-03-30T03:41:36.504Z,5.62
2018-03-30T03:44:04.014Z,5.40
2018-03-30T03:46:31.510Z,5.93
2018-03-30T03:48:59.016Z,5.80
2018-03-30T03:51:26.515Z,5.60
2018-03-30T03:53:54.012Z,5.53
2018-03-30T03:56:21.593Z,5.22
2018-03-30T03:58:49.096Z,6.35
2018-03-30T04:01:17.000Z,5.20
2018-03-30T04:03:44.900Z,6.50
2018-03-30T04:06:12.394Z,5.43
2018-03-30T04:08:39.900Z,5.97
2018-03-30T04:11:07.421Z,6.35
2018-03-30T04:13:34.913Z,6.03
2018-03-30T04:16:02.906Z,6.00
2018-03-30T04:18:30.781Z,6.12
2018-03-30T04:20:58.290Z,6.45
2018-03-30T04:23:26.172Z,6.57
2018-03-30T04:25:53.751Z,5.35
2018-03-30T04:28:21.329Z,6.07
2018-03-30T04:30:48.917Z,6.18
2018-03-30T04:33:16.410Z,5.45
2018-03-30T04:35:43.910Z,6.12
2018-03-30T04:38:11.789Z,5.57
2018-03-30T04:40:39.680Z,6.75
2018-03-30T04:43:07.566Z,6.25
2018-03-30T04:45:35.155Z,6.78
2018-03-30T04:48:03.050Z,6.22
2018-03-30T04:50:30.629Z,6.20
2018-03-30T04:52:58.117Z,6.82
2018-03-30T04:55:25.634Z,6.40
2018-03-30T04:57:53.134Z,6.43
2018-03-30T05:00:20.652Z,6.55
2018-03-30T05:02:48.154Z,5.65
2018-03-30T05:05:16.066Z,6.47
2018-03-30T05:07:43.630Z,6.80
2018-03-30T05:10:11.608Z,5.22
2018-03-30T05:12:39.103Z,6.35
2018-03-30T05:15:07.093Z,6.68
2018-03-30T05:17:34.685Z,5.90
2018-03-30T05:20:02.674Z,6.57
2018-03-30T05:22:30.162Z,6.30
2018-03-30T05:24:57.668Z,5.68
2018-03-30T05:27:25.161Z,5.93
2018-03-30T05:29:52.715Z,5.75
2018-03-30T05:32:20.710Z,6.57
2018-03-30T05:34:48.605Z,6.43
2018-03-30T05:37:16.490Z,6.57
2018-03-30T05:39:44.026Z,6.03
2018-03-30T05:42:11.515Z,5.55
2018-03-30T05:44:39.040Z,6.00
2018-03-30T05:47:06.555Z,6.40
2018-03-30T05:49:34.107Z,6.05
2018-03-30T05:52:01.628Z,6.15
2018-03-30T05:54:29.194Z,6.72
2018-03-30T05:56:57.173Z,5.72
2018-03-30T05:59:24.657Z,5.87
2018-03-30T06:01:52.156Z,7.07
2018-03-30T06:04:19.645Z,6.15
2018-03-30T06:06:47.148Z,6.07
2018-03-30T06:09:14.638Z,6.15
2018-03-30T06:11:42.159Z,6.32
2018-03-30T06:14:09.755Z,6.25
2018-03-30T06:16:37.667Z,6.90
2018-03-30T06:19:05.610Z,5.75
2018-03-30T06:21:33.135Z,5.70
2018-03-30T06:24:01.109Z,6.47
2018-03-30T06:26:28.680Z,6.03
2018-03-30T06:28:56.186Z,6.80
2018-03-30T06:31:23.764Z,7.93
2018-03-30T06:33:51.249Z,7.60
2018-03-30T06:36:18.843Z,6.35
2018-03-30T06:38:46.335Z,7.07
2018-03-30T06:41:14.250Z,6.45
2018-03-30T06:46:16.856Z,7.03
2018-03-30T06:48:44.347Z,6.50
2018-03-30T06:51:12.248Z,7.20
2018-03-30T06:53:40.230Z,6.60
2018-03-30T06:56:07.730Z,7.32
2018-03-30T06:58:35.624Z,7.20
2018-03-30T07:01:03.530Z,6.55
2018-03-30T07:03:31.077Z,6.47
2018-03-30T07:05:58.591Z,6.20
2018-03-30T07:08:26.497Z,6.28
2018-03-30T07:10:54.004Z,7.57
2018-03-30T07:13:21.523Z,6.90
2018-03-30T07:15:49.010Z,6.55
2018-03-30T07:18:16.526Z,6.35
2018-03-30T07:20:44.014Z,6.97
2018-03-30T07:23:11.526Z,6.53
2018-03-30T07:25:39.003Z,6.75
2018-03-30T07:28:06.510Z,7.22
2018-03-30T07:30:33.997Z,7.32
2018-03-30T07:33:01.593Z,7.35
2018-03-30T07:35:29.094Z,7.37
2018-03-30T07:37:57.073Z,7.90
2018-03-30T07:40:24.563Z,7.72
2018-03-30T07:42:52.466Z,8.15
2018-03-30T07:45:20.349Z,6.65
2018-03-30T07:47:48.332Z,7.25
2018-03-30T07:50:15.922Z,7.37
2018-03-30T07:52:43.842Z,7.53
2018-03-30T07:55:11.391Z,7.18
2018-03-30T07:57:38.906Z,7.35
2018-03-30T08:00:06.402Z,7.03
2018-03-30T08:02:33.911Z,8.82
2018-03-30T08:05:01.422Z,7.70
2018-03-30T08:07:28.929Z,7.15
2018-03-30T08:09:56.812Z,5.72
2018-03-30T08:12:24.714Z,6.75
2018-03-30T08:14:52.684Z,6.32
2018-03-30T08:17:20.201Z,6.90
2018-03-30T08:19:47.763Z,6.40
2018-03-30T08:22:15.720Z,7.30
2018-03-30T08:24:43.270Z,7.90
2018-03-30T08:27:10.785Z,6.70
2018-03-30T08:29:38.281Z,6.65
2018-03-30T08:32:05.812Z,6.47
2018-03-30T08:34:33.317Z,5.62
2018-03-30T08:37:00.863Z,6.12
2018-03-30T08:39:28.832Z,5.93
2018-03-30T08:41:56.431Z,6.80
2018-03-30T08:44:23.954Z,4.70
2018-03-30T08:46:51.456Z,5.35
2018-03-30T08:49:18.988Z,5.47
2018-03-30T08:51:46.480Z,5.73
2018-03-30T08:54:14.402Z,5.40
2018-03-30T08:56:41.948Z,5.23
2018-03-30T08:59:09.871Z,5.23
2018-03-30T09:01:37.374Z,4.83
2018-03-30T09:04:04.902Z,4.70
2018-03-30T09:06:32.392Z,4.73
2018-03-30T09:09:00.315Z,3.90
2018-03-30T09:11:27.808Z,3.80
2018-03-30T09:13:55.368Z,3.70
2018-03-30T09:16:23.341Z,4.63
2018-03-30T09:18:50.928Z,3.97
2018-03-30T09:21:18.422Z,3.43
2018-03-30T09:23:46.328Z,3.93
2018-03-30T09:26:14.218Z,3.47
2018-03-30T09:28:42.130Z,3.03
2018-03-30T09:31:09.616Z,3.67
2018-03-30T09:33:37.120Z,3.30
2018-03-30T09:36:04.626Z,3.50
2018-03-30T09:38:32.137Z,3.30
2018-03-30T09:41:00.037Z,3.50
2018-03-30T09:43:27.954Z,3.63
2018-03-30T09:45:55.492Z,3.93
2018-03-30T09:48:23.003Z,3.70
2018-03-30T09:50:50.491Z,3.93
2018-03-30T09:53:18.006Z,3.50
2018-03-30T09:55:45.535Z,4.43
2018-03-30T09:58:13.516Z,4.60
2018-03-30T10:00:43.799Z,5.07
2018-03-30T10:03:11.313Z,4.50
2018-03-30T10:05:38.804Z,14.87
2018-03-30T10:08:06.288Z,4.10
2018-03-30T10:10:33.788Z,4.37
2018-03-30T10:13:01.285Z,5.00
2018-03-30T10:15:28.860Z,4.90
2018-03-30T10:17:56.358Z,3.53
2018-03-30T10:20:24.293Z,4.27
2018-03-30T10:22:51.792Z,3.83
2018-03-30T10:25:19.333Z,3.40
2018-03-30T10:27:47.221Z,4.13
2018-03-30T10:30:15.213Z,3.53
2018-03-30T10:32:43.121Z,3.67
2018-03-30T10:35:10.810Z,3.30
2018-03-30T10:37:38.317Z,4.03
2018-03-30T10:40:05.825Z,3.10
2018-03-30T10:42:33.317Z,3.93
2018-03-30T10:45:00.830Z,3.70
2018-03-30T10:47:28.730Z,3.20
2018-03-30T10:49:56.656Z,10.77
2018-03-30T10:52:24.155Z,3.73
2018-03-30T10:54:51.668Z,3.20
2018-03-30T10:57:19.225Z,3.47
2018-03-30T10:59:46.707Z,3.10
2018-03-30T11:02:14.204Z,2.90
2018-03-30T11:04:42.137Z,2.20
2018-03-30T11:07:09.826Z,2.30
2018-03-30T11:09:37.729Z,2.50
2018-03-30T11:12:05.364Z,1.87
2018-03-30T11:14:32.864Z,3.00
2018-03-30T11:17:00.466Z,2.33
2018-03-30T11:19:28.440Z,2.00
2018-03-30T11:21:55.924Z,1.50
2018-03-30T11:24:23.508Z,2.03
2018-03-30T11:26:51.123Z,1.77
2018-03-30T11:29:18.676Z,1.83
2018-03-30T11:31:46.283Z,1.70
2018-03-30T11:34:14.265Z,1.97
2018-03-30T11:36:41.778Z,1.80
2018-03-30T11:39:09.277Z,1.90
2018-03-30T11:41:36.841Z,1.30
2018-03-30T11:44:04.403Z,1.60
2018-03-30T11:46:32.314Z,1.40
2018-03-30T11:48:59.813Z,1.70
2018-03-30T11:51:27.350Z,1.37
2018-03-30T11:53:54.844Z,1.47
2018-03-30T11:56:22.359Z,1.30
2018-03-30T11:58:49.848Z,1.23
2018-03-30T12:01:17.365Z,1.10
2018-03-30T12:03:44.870Z,1.50
2018-03-30T12:06:12.466Z,1.27
2018-03-30T12:08:40.358Z,1.17
2018-03-30T12:11:08.262Z,1.50
2018-03-30T12:13:36.152Z,1.23
2018-03-30T12:16:04.082Z,1.10
2018-03-30T12:18:31.577Z,1.20
2018-03-30T12:20:59.084Z,1.10
2018-03-30T12:23:26.595Z,1.40
2018-03-30T12:25:54.567Z,1.00
2018-03-30T12:28:22.067Z,1.50
2018-03-30T12:30:50.054Z,1.47
2018-03-30T12:33:17.544Z,1.00
2018-03-30T12:35:45.555Z,1.50
2018-03-30T12:38:13.122Z,1.40
2018-03-30T12:40:41.029Z,1.70
2018-03-30T12:43:08.926Z,1.30
2018-03-30T12:45:36.858Z,1.40
2018-03-30T12:48:04.349Z,1.73
2018-03-30T12:50:31.871Z,1.90
2018-03-30T12:52:59.805Z,1.60
2018-03-30T12:55:27.685Z,2.33
2018-03-30T12:57:55.186Z,1.50
2018-03-30T13:00:22.692Z,1.60
2018-03-30T13:02:50.212Z,1.80
2018-03-30T13:05:18.118Z,2.33
2018-03-30T13:07:45.624Z,2.40
2018-03-30T13:10:13.122Z,2.10
2018-03-30T13:12:40.754Z,1.77
2018-03-30T13:15:08.646Z,1.70
2018-03-30T13:17:36.549Z,1.97
2018-03-30T13:20:04.114Z,2.27
2018-03-30T13:22:31.620Z,1.73
2018-03-30T13:24:59.108Z,2.10
2018-03-30T13:27:26.689Z,2.13
2018-03-30T13:29:54.181Z,2.13
2018-03-30T13:32:21.685Z,2.00
2018-03-30T13:34:49.186Z,2.07
2018-03-30T13:37:16.810Z,2.10
2018-03-30T13:39:44.321Z,2.67
2018-03-30T13:42:11.900Z,2.37
2018-03-30T13:44:39.794Z,2.10
2018-03-30T13:47:07.801Z,2.63
2018-03-30T13:49:35.697Z,2.37
2018-03-30T13:54:59.116Z,7.23
2018-03-30T13:57:29.983Z,2.17
2018-03-30T13:59:57.516Z,3.63
2018-03-30T14:02:41.666Z,2.80
2018-03-30T14:05:27.596Z,4.10
2018-03-30T14:08:17.022Z,2.37
2018-03-30T14:10:48.180Z,3.03
2018-03-30T14:13:16.106Z,1.70
2018-03-30T14:15:44.372Z,2.30
2018-03-30T14:18:18.169Z,2.20
2018-03-30T14:20:48.516Z,2.93
2018-03-30T14:26:14.174Z,2.60
2018-03-30T14:28:42.855Z,2.50
2018-03-30T14:31:27.129Z,1.93
2018-03-30T14:33:54.640Z,2.50
2018-03-30T14:36:42.194Z,2.30
2018-03-30T14:39:40.264Z,3.20
2018-03-30T14:42:08.572Z,2.30
2018-03-30T14:44:40.514Z,2.40
2018-03-30T14:47:08.737Z,1.77
2018-03-30T14:49:39.472Z,2.30
2018-03-30T14:52:26.618Z,2.13
2018-03-30T14:55:10.652Z,1.77
2018-03-30T14:57:39.573Z,2.17
2018-03-30T15:00:07.089Z,1.83
2018-03-30T15:02:37.384Z,2.17
2018-03-30T15:05:16.603Z,2.23
2018-03-30T15:07:45.882Z,2.23
2018-03-30T15:10:34.939Z,1.87
2018-03-30T15:13:06.206Z,2.27
2018-03-30T15:15:33.722Z,2.30
2018-03-30T15:18:16.613Z,1.87
2018-03-30T15:20:54.094Z,2.30
2018-03-30T15:23:46.404Z,3.23
2018-03-30T15:26:17.669Z,1.80
2018-03-30T15:28:45.899Z,4.20
2018-03-30T15:31:27.904Z,2.40
2018-03-30T15:33:58.823Z,6.03
2018-03-30T15:36:42.857Z,2.80
2018-03-30T15:39:10.737Z,2.03
2018-03-30T15:41:41.038Z,2.00
2018-03-30T15:44:08.521Z,2.27
2018-03-30T15:46:39.481Z,2.93
2018-03-30T15:49:06.965Z,2.50
2018-03-30T15:51:45.009Z,2.30
2018-03-30T15:54:12.026Z,2.47
2018-03-30T15:56:40.835Z,2.70
2018-03-30T15:59:08.744Z,2.40
2018-03-30T16:01:36.629Z,2.50
2018-03-30T16:04:04.627Z,2.30
2018-03-30T16:06:32.532Z,2.40
2018-03-30T16:09:00.056Z,2.07
2018-03-30T16:11:31.564Z,1.97
2018-03-30T16:13:59.174Z,2.03
2018-03-30T16:16:27.060Z,2.30
2018-03-30T16:18:56.439Z,2.00
2018-03-30T16:21:23.826Z,2.50
2018-03-30T16:23:50.842Z,1.63
2018-03-30T16:26:18.238Z,1.90
2018-03-30T16:28:45.276Z,2.00
2018-03-30T16:31:12.317Z,2.20
2018-03-30T16:33:39.333Z,1.83
2018-03-30T16:36:06.768Z,1.70
2018-03-30T16:38:33.802Z,1.80
2018-03-30T16:41:00.813Z,1.70
2018-03-30T16:43:27.833Z,2.17
2018-03-30T16:45:55.229Z,8.80
2018-03-30T16:48:22.261Z,4.80
2018-03-30T16:50:49.713Z,4.50
2018-03-30T16:53:16.709Z,4.37
2018-03-30T16:55:43.723Z,15.80
2018-03-30T16:58:10.777Z,1.90
2018-03-30T17:00:38.172Z,5.77
2018-03-30T17:03:05.194Z,3.67
2018-03-30T17:05:32.210Z,5.97
2018-03-30T17:07:59.232Z,8.40
2018-03-30T17:10:26.254Z,2.67
2018-03-30T17:12:53.653Z,2.70
2018-03-30T17:15:20.766Z,2.20
2018-03-30T17:17:47.777Z,2.33
2018-03-30T17:20:15.185Z,1.60
2018-03-30T17:22:42.193Z,4.20
2018-03-30T17:25:09.212Z,2.00
2018-03-30T17:27:36.208Z,2.60
2018-03-30T17:30:03.228Z,3.57
2018-03-30T17:32:30.625Z,1.93
2018-03-30T17:34:57.782Z,1.93
2018-03-30T17:37:25.264Z,2.20
2018-03-30T17:39:52.687Z,1.90
2018-03-30T17:42:19.711Z,2.30
2018-03-30T17:44:46.780Z,2.07
2018-03-30T17:47:13.866Z,9.10
2018-03-30T17:49:41.295Z,2.80
2018-03-30T17:52:08.419Z,2.70
2018-03-30T17:54:35.908Z,2.40
2018-03-30T17:57:03.311Z,2.13
2018-03-30T17:59:30.474Z,2.90
2018-03-30T18:01:57.873Z,3.40
2018-03-30T18:04:25.020Z,2.97
2018-03-30T18:06:52.412Z,3.37
2018-03-30T18:09:19.868Z,3.87
2018-03-30T18:11:46.868Z,2.47
2018-03-30T18:14:13.896Z,3.00
2018-03-30T18:16:40.985Z,2.70
2018-03-30T18:19:08.071Z,3.70
2018-03-30T18:21:35.490Z,2.80
2018-03-30T18:24:02.522Z,2.60
2018-03-30T18:26:30.000Z,5.50
2018-03-30T18:28:57.490Z,15.65
2018-03-30T18:31:24.912Z,3.33
2018-03-30T18:33:51.955Z,3.53
2018-03-30T18:36:18.976Z,3.97
2018-03-30T18:38:45.978Z,4.07
2018-03-30T18:41:13.401Z,3.80
2018-03-30T18:43:40.414Z,4.65
2018-03-30T18:46:07.628Z,3.75
2018-03-30T18:48:34.688Z,3.28
2018-03-30T18:51:02.104Z,5.20
2018-03-30T18:53:29.247Z,3.90
2018-03-30T18:55:56.717Z,3.55
2018-03-30T18:58:23.815Z,3.55
2018-03-30T19:00:50.861Z,3.85
2018-03-30T19:03:17.931Z,3.75
2018-03-30T19:05:44.960Z,3.53
2018-03-30T19:08:12.001Z,3.15
2018-03-30T19:10:39.054Z,3.15
2018-03-30T19:13:06.543Z,3.40
2018-03-30T19:15:33.995Z,3.00
2018-03-30T19:18:01.014Z,3.55
2018-03-30T19:20:28.065Z,3.50
2018-03-30T19:22:55.159Z,2.87
2018-03-30T19:25:22.218Z,2.65
2018-03-30T19:27:49.626Z,2.62
2018-03-30T19:30:16.661Z,3.08
2018-03-30T19:32:43.745Z,3.15
2018-03-30T19:35:11.162Z,3.50
2018-03-30T19:37:38.164Z,3.10
2018-03-30T19:40:05.199Z,2.90
2018-03-30T19:42:32.210Z,3.60
2018-03-30T19:44:59.330Z,3.40
2018-03-30T19:47:26.829Z,2.90
2018-03-30T19:49:53.870Z,2.90
2018-03-30T19:52:21.270Z,2.87
2018-03-30T19:54:48.318Z,3.12
2018-03-30T19:57:15.793Z,2.70
2018-03-30T19:59:42.795Z,4.15
2018-03-30T20:02:09.822Z,3.50
2018-03-30T20:04:36.831Z,2.95
2018-03-30T20:07:03.978Z,2.65
2018-03-30T20:09:30.985Z,3.12
2018-03-30T20:11:58.029Z,2.80
2018-03-30T20:14:25.110Z,2.28
2018-03-30T20:16:52.532Z,2.30
2018-03-30T20:19:19.524Z,2.97
2018-03-30T20:21:46.657Z,2.30
2018-03-30T20:24:13.692Z,2.20
2018-03-30T20:26:40.709Z,2.20
2018-03-30T20:29:07.700Z,2.25
2018-03-30T20:31:34.817Z,2.72
2018-03-30T20:34:01.818Z,2.35
2018-03-30T20:36:28.847Z,2.78
2018-03-30T20:38:55.844Z,2.83
2018-03-30T20:41:23.244Z,3.62
2018-03-30T20:43:50.634Z,2.83
2018-03-30T20:46:17.675Z,2.50
2018-03-30T20:48:45.149Z,2.80
2018-03-30T20:51:12.172Z,2.67
2018-03-30T20:53:39.212Z,2.47
2018-03-30T20:56:06.639Z,2.80
2018-03-30T20:58:33.651Z,2.78
2018-03-30T21:01:00.721Z,2.40
2018-03-30T21:03:27.723Z,3.10
2018-03-30T21:05:55.173Z,2.45
2018-03-30T21:08:22.313Z,2.53
2018-03-30T21:10:49.679Z,2.45
2018-03-30T21:13:16.703Z,2.70
2018-03-30T21:15:43.706Z,2.75
2018-03-30T21:18:10.725Z,1.90
2018-03-30T21:20:37.827Z,2.25
2018-03-30T21:23:05.293Z,2.58
2018-03-30T21:25:32.298Z,2.60
2018-03-30T21:27:59.756Z,3.05
2018-03-30T21:30:26.829Z,3.37
2018-03-30T21:32:53.854Z,3.03
2018-03-30T21:35:20.864Z,2.60
2018-03-30T21:37:47.890Z,2.80
2018-03-30T21:40:14.913Z,3.37
2018-03-30T21:42:41.925Z,2.90
2018-03-30T21:45:08.928Z,3.17
2018-03-30T21:47:35.948Z,2.50
2018-03-30T21:50:03.004Z,2.42
2018-03-30T21:52:30.027Z,3.10
2018-03-30T21:54:57.139Z,3.33
2018-03-30T21:57:24.205Z,2.85
2018-03-30T21:59:51.209Z,3.00
2018-03-30T22:02:18.271Z,2.40
2018-03-30T22:04:45.754Z,3.17
2018-03-30T22:07:13.179Z,2.65
2018-03-30T22:09:40.206Z,2.90
2018-03-30T22:12:07.616Z,2.85
2018-03-30T22:14:34.619Z,2.35
2018-03-30T22:17:01.647Z,2.78
2018-03-30T22:19:29.045Z,2.90
2018-03-30T22:21:56.070Z,3.40
2018-03-30T22:24:23.148Z,2.87
2018-03-30T22:26:50.228Z,2.80
2018-03-30T22:29:17.230Z,3.28
2018-03-30T22:31:44.240Z,3.60
2018-03-30T22:34:11.328Z,2.75
2018-03-30T22:36:38.408Z,3.53
2018-03-30T22:39:05.416Z,3.12
2018-03-30T22:41:32.434Z,3.45
2018-03-30T22:43:59.528Z,3.80
2018-03-30T22:46:26.530Z,3.67
2018-03-30T22:48:53.553Z,3.20
2018-03-30T22:51:20.598Z,3.12
2018-03-30T22:53:47.722Z,3.50
2018-03-30T22:56:15.319Z,3.22
2018-03-30T22:58:42.803Z,4.10
2018-03-30T23:01:10.252Z,4.45
2018-03-30T23:03:37.332Z,3.37
2018-03-30T23:06:04.408Z,3.53
2018-03-30T23:08:31.417Z,3.72
2018-03-30T23:10:58.413Z,4.00
2018-03-30T23:13:25.534Z,3.42
2018-03-30T23:15:52.601Z,3.83
2018-03-30T23:18:19.681Z,3.95
2018-03-30T23:20:46.741Z,4.05
2018-03-30T23:23:13.822Z,4.40
2018-03-30T23:25:40.898Z,4.03
2018-03-30T23:28:07.918Z,3.55
2018-03-30T23:30:34.929Z,5.40
2018-03-30T23:33:02.007Z,4.30
2018-03-30T23:35:29.090Z,4.70
2018-03-30T23:37:56.116Z,4.22
2018-03-30T23:40:23.139Z,4.72
2018-03-30T23:42:50.594Z,4.10
2018-03-30T23:45:17.691Z,4.70
2018-03-30T23:47:45.117Z,4.40
2018-03-30T23:50:12.119Z,4.40
2018-03-30T23:52:39.142Z,3.95
2018-03-30T23:55:06.142Z,4.75
2018-03-30T23:57:33.157Z,4.03
